createdAt,value
2018-02-18T00:02:37.228Z,87.04
2018-02-18T00:05:40.509Z,87.00
2018-02-18T00:08:43.803Z,87.19
2018-02-18T00:11:47.085Z,87.30
2018-02-18T00:18:23.496Z,87.46
2018-02-18T00:21:26.774Z,87.44
2018-02-18T00:24:30.056Z,87.48
2018-02-18T00:27:33.456Z,87.46
2018-02-18T00:30:37.686Z,87.53
2018-02-18T00:33:40.979Z,87.52
2018-02-18T00:36:44.275Z,87.54
2018-02-18T00:39:48.351Z,87.72
2018-02-18T00:42:51.691Z,87.66
2018-02-18T00:45:54.959Z,87.45
2018-02-18T00:48:58.244Z,86.93
2018-02-18T00:52:01.540Z,86.58
2018-02-18T00:55:04.824Z,86.88
2018-02-18T00:58:08.195Z,87.03
2018-02-18T01:01:11.510Z,87.11
2018-02-18T01:04:14.792Z,86.93
2018-02-18T01:07:18.164Z,87.00
2018-02-18T01:10:22.212Z,86.98
2018-02-18T01:13:25.614Z,86.78
2018-02-18T01:16:28.852Z,86.83
2018-02-18T01:19:32.909Z,86.88
2018-02-18T01:22:36.188Z,86.88
2018-02-18T01:25:40.243Z,87.03
2018-02-18T01:28:43.568Z,87.12
2018-02-18T01:31:46.862Z,87.17
2018-02-18T01:34:50.151Z,87.06
2018-02-18T01:37:53.447Z,87.04
2018-02-18T01:40:56.722Z,87.30
2018-02-18T01:44:00.013Z,87.21
2018-02-18T01:47:03.638Z,87.17
2018-02-18T01:50:24.660Z,86.82
2018-02-18T01:53:27.938Z,86.78
2018-02-18T01:56:31.228Z,86.69
2018-02-18T01:59:34.634Z,85.86
2018-02-18T02:02:37.911Z,85.88
2018-02-18T02:05:41.227Z,86.46
2018-02-18T02:08:44.497Z,86.93
2018-02-18T02:11:48.570Z,86.80
2018-02-18T02:14:51.852Z,87.05
2018-02-18T02:17:56.738Z,86.30
2018-02-18T02:21:00.782Z,85.63
2018-02-18T02:24:04.073Z,85.78
2018-02-18T02:27:07.346Z,85.43
2018-02-18T02:30:11.407Z,85.10
2018-02-18T02:33:14.706Z,85.13
2018-02-18T02:36:18.099Z,85.01
2018-02-18T02:39:21.393Z,84.72
2018-02-18T02:42:24.659Z,85.09
2018-02-18T02:45:29.761Z,85.01
2018-02-18T02:48:34.018Z,85.45
2018-02-18T02:51:38.058Z,85.29
2018-02-18T02:54:41.757Z,84.98
2018-02-18T02:57:45.028Z,85.35
2018-02-18T03:00:49.569Z,85.81
2018-02-18T03:03:53.623Z,85.86
2018-02-18T03:06:57.277Z,86.12
2018-02-18T03:10:01.425Z,86.38
2018-02-18T03:13:04.694Z,86.57
2018-02-18T03:16:08.837Z,86.91
2018-02-18T03:19:12.436Z,87.01
2018-02-18T03:22:15.726Z,87.00
2018-02-18T03:25:20.114Z,87.17
2018-02-18T03:28:23.413Z,87.19
2018-02-18T03:31:28.463Z,86.90
2018-02-18T03:34:31.750Z,86.84
2018-02-18T03:37:35.029Z,86.85
2018-02-18T03:40:38.309Z,86.58
2018-02-18T03:43:41.630Z,86.32
2018-02-18T03:46:44.971Z,85.84
2018-02-18T03:49:49.104Z,85.84
2018-02-18T03:52:52.379Z,86.17
2018-02-18T03:55:56.444Z,86.38
2018-02-18T03:58:59.782Z,86.77
2018-02-18T04:02:03.061Z,86.80
2018-02-18T04:05:06.384Z,87.09
2018-02-18T04:08:10.452Z,87.19
2018-02-18T04:11:13.749Z,87.13
2018-02-18T04:14:17.049Z,87.18
2018-02-18T04:17:20.307Z,87.21
2018-02-18T04:20:24.366Z,87.22
2018-02-18T04:23:27.734Z,87.16
2018-02-18T04:26:31.045Z,87.06
2018-02-18T04:29:34.324Z,87.08
2018-02-18T04:32:37.632Z,86.98
2018-02-18T04:35:40.947Z,86.78
2018-02-18T04:38:44.208Z,86.31
2018-02-18T04:41:48.261Z,86.25
2018-02-18T04:44:51.627Z,86.29
2018-02-18T04:47:56.893Z,86.19
2018-02-18T04:51:00.175Z,85.91
2018-02-18T04:54:03.469Z,85.70
2018-02-18T04:57:06.751Z,85.79
2018-02-18T05:00:10.821Z,85.99
2018-02-18T05:03:14.197Z,86.42
2018-02-18T05:06:17.472Z,86.47
2018-02-18T05:09:21.601Z,86.32
2018-02-18T05:12:24.886Z,85.87
2018-02-18T05:15:28.931Z,86.02
2018-02-18T05:18:32.203Z,85.42
2018-02-18T05:21:35.501Z,85.22
2018-02-18T05:24:39.614Z,84.98
2018-02-18T05:27:43.664Z,84.54
2018-02-18T05:30:46.944Z,84.33
2018-02-18T05:33:50.227Z,84.00
2018-02-18T05:36:53.626Z,83.51
2018-02-18T05:39:57.658Z,83.77
2018-02-18T05:43:02.088Z,83.30
2018-02-18T05:46:05.350Z,82.84
2018-02-18T05:49:09.400Z,82.81
2018-02-18T05:52:12.697Z,82.57
2018-02-18T05:55:15.984Z,82.39
2018-02-18T05:58:20.017Z,83.15
2018-02-18T06:01:23.288Z,83.09
2018-02-18T06:04:26.585Z,82.91
2018-02-18T06:07:29.868Z,82.78
2018-02-18T06:10:33.902Z,82.66
2018-02-18T06:13:37.189Z,82.69
2018-02-18T06:16:41.221Z,82.55
2018-02-18T06:19:44.619Z,83.04
2018-02-18T06:22:47.898Z,82.85
2018-02-18T06:25:51.953Z,82.42
2018-02-18T06:28:56.262Z,82.41
2018-02-18T06:31:59.558Z,82.68
2018-02-18T06:35:02.897Z,82.86
2018-02-18T06:38:06.959Z,82.86
2018-02-18T06:41:10.486Z,83.02
2018-02-18T06:44:13.754Z,82.59
2018-02-18T06:47:17.029Z,82.50
2018-02-18T06:50:21.077Z,82.37
2018-02-18T06:53:24.347Z,82.11
2018-02-18T06:56:28.391Z,82.04
2018-02-18T06:59:33.672Z,81.59
2018-02-18T07:02:36.939Z,81.74
2018-02-18T07:05:40.225Z,81.43
2018-02-18T07:08:44.259Z,81.98
2018-02-18T07:11:47.538Z,81.56
2018-02-18T07:14:50.819Z,81.14
2018-02-18T07:17:54.948Z,81.10
2018-02-18T07:20:58.212Z,81.96
2018-02-18T07:24:02.289Z,82.34
2018-02-18T07:27:05.566Z,81.02
2018-02-18T07:30:08.839Z,81.14
2018-02-18T07:33:12.869Z,80.43
2018-02-18T07:36:16.147Z,81.43
2018-02-18T07:39:20.188Z,82.33
2018-02-18T07:42:23.479Z,81.78
2018-02-18T07:45:26.789Z,80.64
2018-02-18T07:48:30.079Z,79.23
2018-02-18T07:51:33.349Z,78.72
2018-02-18T07:54:37.411Z,77.73
2018-02-18T07:57:40.680Z,77.24
2018-02-18T08:00:44.175Z,77.98
2018-02-18T08:03:47.500Z,78.35
2018-02-18T08:06:50.772Z,76.56
2018-02-18T08:09:54.035Z,76.44
2018-02-18T08:12:57.310Z,77.46
2018-02-18T08:16:00.855Z,77.84
2018-02-18T08:19:06.122Z,75.97
2018-02-18T08:22:09.382Z,77.08
2018-02-18T08:25:12.657Z,76.95
2018-02-18T08:28:15.912Z,76.80
2018-02-18T08:31:19.183Z,76.60
2018-02-18T08:34:23.222Z,77.07
2018-02-18T08:37:26.492Z,78.69
2018-02-18T08:40:31.137Z,78.98
2018-02-18T08:43:34.555Z,78.64
2018-02-18T08:46:37.874Z,76.30
2018-02-18T08:49:41.194Z,76.54
2018-02-18T08:52:44.559Z,74.02
2018-02-18T08:55:47.841Z,73.76
2018-02-18T08:58:51.212Z,78.17
2018-02-18T09:01:55.341Z,79.25
2018-02-18T09:04:59.433Z,77.49
2018-02-18T09:08:02.830Z,77.91
2018-02-18T09:11:08.724Z,79.02
2018-02-18T09:14:12.121Z,78.30
2018-02-18T09:17:16.362Z,75.71
2018-02-18T09:20:19.749Z,75.76
2018-02-18T09:23:23.842Z,74.67
2018-02-18T09:26:27.432Z,73.99
2018-02-18T09:29:30.839Z,76.41
2018-02-18T09:32:34.171Z,77.44
2018-02-18T09:35:38.746Z,76.79
2018-02-18T09:38:42.824Z,75.25
2018-02-18T09:41:46.093Z,76.70
2018-02-18T09:44:50.235Z,78.14
2018-02-18T09:47:53.757Z,76.98
2018-02-18T09:50:57.378Z,75.47
2018-02-18T09:54:00.822Z,77.42
2018-02-18T09:57:04.903Z,77.21
2018-02-18T10:00:08.570Z,76.82
2018-02-18T10:03:11.864Z,76.24
2018-02-18T10:06:15.175Z,76.41
2018-02-18T10:09:18.557Z,75.36
2018-02-18T10:12:21.946Z,76.03
2018-02-18T10:15:25.266Z,75.93
2018-02-18T10:18:28.615Z,76.48
2018-02-18T10:21:32.703Z,76.80
2018-02-18T10:24:41.276Z,76.01
2018-02-18T10:27:45.324Z,76.69
2018-02-18T10:30:48.701Z,77.12
2018-02-18T10:33:51.987Z,78.18
2018-02-18T10:36:56.043Z,78.03
2018-02-18T10:39:59.408Z,77.60
2018-02-18T10:43:02.721Z,76.99
2018-02-18T10:46:06.039Z,74.65
2018-02-18T10:49:10.084Z,77.28
2018-02-18T10:52:13.372Z,76.08
2018-02-18T10:55:17.452Z,75.21
2018-02-18T10:58:20.740Z,76.30
2018-02-18T11:01:24.114Z,74.28
2018-02-18T11:04:28.218Z,75.44
2018-02-18T11:07:31.488Z,73.04
2018-02-18T11:10:35.161Z,72.46
2018-02-18T11:13:38.477Z,70.29
2018-02-18T11:16:41.775Z,73.48
2018-02-18T11:19:45.083Z,74.26
2018-02-18T11:22:53.839Z,75.83
2018-02-18T11:25:57.256Z,76.42
2018-02-18T11:29:01.311Z,78.04
2018-02-18T11:32:04.595Z,76.63
2018-02-18T11:35:08.004Z,77.56
2018-02-18T11:38:12.319Z,77.79
2018-02-18T11:41:15.593Z,75.86
2018-02-18T11:44:20.073Z,77.34
2018-02-18T11:47:23.592Z,76.32
2018-02-18T11:50:26.942Z,75.67
2018-02-18T11:53:30.248Z,75.71
2018-02-18T11:56:33.774Z,75.06
2018-02-18T11:59:37.091Z,74.83
2018-02-18T12:02:40.374Z,76.31
2018-02-18T12:05:43.684Z,76.96
2018-02-18T12:08:47.103Z,76.71
2018-02-18T12:11:50.450Z,75.78
2018-02-18T12:14:53.778Z,72.29
2018-02-18T12:18:07.969Z,71.96
2018-02-18T12:21:13.908Z,70.12
2018-02-18T12:24:17.386Z,68.76
2018-02-18T12:27:20.673Z,67.35
2018-02-18T12:30:23.944Z,65.06
2018-02-18T12:33:27.217Z,68.45
2018-02-18T12:36:31.266Z,71.65
2018-02-18T12:39:34.530Z,72.15
2018-02-18T12:42:37.800Z,72.89
2018-02-18T12:45:41.066Z,73.87
2018-02-18T12:48:44.457Z,71.94
2018-02-18T12:51:47.725Z,72.72
2018-02-18T12:54:51.885Z,71.19
2018-02-18T12:57:55.166Z,73.79
2018-02-18T13:00:58.478Z,74.44
2018-02-18T13:04:01.786Z,74.42
2018-02-18T13:07:05.224Z,75.48
2018-02-18T13:10:08.567Z,77.29
2018-02-18T13:13:11.842Z,76.16
2018-02-18T13:16:16.100Z,76.03
2018-02-18T13:19:19.461Z,75.57
2018-02-18T13:22:22.749Z,76.11
2018-02-18T13:25:26.025Z,76.46
2018-02-18T13:28:29.364Z,75.99
2018-02-18T13:31:32.659Z,75.75
2018-02-18T13:34:37.617Z,74.44
2018-02-18T13:37:40.913Z,75.75
2018-02-18T13:40:44.245Z,74.35
2018-02-18T13:43:47.544Z,73.99
2018-02-18T13:46:50.842Z,73.68
2018-02-18T13:49:54.108Z,75.25
2018-02-18T13:52:57.437Z,71.90
2018-02-18T13:56:00.777Z,72.95
2018-02-18T13:59:04.084Z,74.98
2018-02-18T14:02:21.192Z,74.17
2018-02-18T14:05:24.736Z,74.01
2018-02-18T14:08:28.017Z,74.44
2018-02-18T14:11:31.355Z,74.98
2018-02-18T14:14:34.618Z,76.07
2018-02-18T14:17:37.940Z,77.59
2018-02-18T14:20:41.205Z,77.85
2018-02-18T14:23:45.007Z,78.43
2018-02-18T14:26:49.342Z,77.68
2018-02-18T14:29:52.742Z,77.00
2018-02-18T14:32:56.042Z,78.56
2018-02-18T14:35:59.386Z,79.81
2018-02-18T14:39:02.686Z,80.22
2018-02-18T14:42:23.829Z,78.10
2018-02-18T14:45:45.985Z,79.65
2018-02-18T14:49:07.179Z,78.75
2018-02-18T14:52:28.278Z,79.57
2018-02-18T14:55:49.392Z,78.54
2018-02-18T14:58:52.660Z,78.10
2018-02-18T15:01:56.037Z,77.98
2018-02-18T15:04:59.345Z,77.31
2018-02-18T15:08:02.648Z,77.49
2018-02-18T15:11:06.163Z,77.49
2018-02-18T15:14:09.424Z,78.79
2018-02-18T15:17:12.732Z,79.48
2018-02-18T15:20:16.036Z,78.61
2018-02-18T15:23:20.555Z,79.37
2018-02-18T15:26:23.845Z,78.65
2018-02-18T15:29:28.417Z,78.04
2018-02-18T15:32:31.673Z,78.54
2018-02-18T15:35:35.017Z,77.03
2018-02-18T15:38:38.335Z,77.89
2018-02-18T15:41:55.769Z,77.41
2018-02-18T15:44:59.913Z,78.43
2018-02-18T15:48:03.246Z,78.42
2018-02-18T15:51:06.520Z,77.34
2018-02-18T15:54:09.869Z,75.55
2018-02-18T15:57:13.833Z,77.51
2018-02-18T16:00:17.212Z,77.10
2018-02-18T16:03:20.574Z,78.28
2018-02-18T16:06:24.625Z,77.54
2018-02-18T16:09:28.738Z,77.49
2018-02-18T16:12:32.784Z,77.62
2018-02-18T16:15:36.041Z,78.29
2018-02-18T16:18:39.315Z,79.14
2018-02-18T16:21:42.628Z,78.56
2018-02-18T16:24:45.897Z,78.76
2018-02-18T16:27:49.692Z,79.65
2018-02-18T16:30:53.004Z,79.07
2018-02-18T16:33:57.015Z,80.06
2018-02-18T16:37:01.136Z,80.10
2018-02-18T16:40:04.673Z,80.55
2018-02-18T16:43:07.977Z,80.95
2018-02-18T16:46:11.371Z,81.62
2018-02-18T16:49:15.560Z,81.80
2018-02-18T16:52:18.839Z,81.86
2018-02-18T16:55:24.129Z,82.14
2018-02-18T16:58:27.424Z,82.29
2018-02-18T17:01:30.768Z,82.44
2018-02-18T17:04:34.140Z,82.91
2018-02-18T17:07:38.203Z,82.75
2018-02-18T17:10:41.533Z,82.73
2018-02-18T17:13:44.806Z,82.42
2018-02-18T17:16:48.310Z,82.37
2018-02-18T17:19:51.597Z,82.52
2018-02-18T17:22:54.908Z,82.21
2018-02-18T17:25:58.232Z,82.72
2018-02-18T17:29:01.498Z,83.06
2018-02-18T17:32:04.763Z,84.50
2018-02-18T17:35:08.044Z,83.30
2018-02-18T17:38:12.095Z,84.47
2018-02-18T17:41:15.381Z,83.92
2018-02-18T17:44:18.679Z,83.71
2018-02-18T17:47:21.964Z,83.45
2018-02-18T17:50:26.040Z,83.38
2018-02-18T17:53:29.313Z,83.16
2018-02-18T17:56:32.606Z,83.14
2018-02-18T17:59:35.906Z,83.29
2018-02-18T18:02:39.180Z,83.53
2018-02-18T18:05:42.495Z,83.40
2018-02-18T18:08:45.774Z,83.45
2018-02-18T18:11:49.050Z,83.77
2018-02-18T18:14:53.164Z,83.71
2018-02-18T18:18:00.742Z,84.49
2018-02-18T18:21:04.016Z,84.71
2018-02-18T18:24:07.312Z,84.68
2018-02-18T18:27:10.701Z,84.26
2018-02-18T18:30:14.013Z,84.72
2018-02-18T18:33:17.350Z,84.36
2018-02-18T18:36:20.646Z,84.42
2018-02-18T18:39:26.214Z,84.58
2018-02-18T18:42:29.598Z,84.38
2018-02-18T18:45:32.876Z,83.50
2018-02-18T18:48:36.343Z,83.24
2018-02-18T18:51:39.658Z,83.55
2018-02-18T18:54:42.945Z,83.04
2018-02-18T18:57:46.234Z,82.95
2018-02-18T19:00:49.542Z,82.92
2018-02-18T19:03:53.608Z,82.98
2018-02-18T19:06:57.656Z,82.84
2018-02-18T19:10:00.979Z,83.25
2018-02-18T19:13:04.253Z,83.43
2018-02-18T19:16:07.550Z,83.52
2018-02-18T19:19:10.888Z,83.80
2018-02-18T19:22:15.081Z,83.87
2018-02-18T19:25:18.385Z,84.09
2018-02-18T19:28:21.660Z,83.98
2018-02-18T19:31:24.965Z,83.90
2018-02-18T19:34:28.259Z,84.09
2018-02-18T19:37:31.531Z,83.89
2018-02-18T19:40:35.582Z,84.01
2018-02-18T19:43:38.872Z,84.13
2018-02-18T19:46:42.194Z,83.60
2018-02-18T19:49:45.479Z,83.07
2018-02-18T19:52:48.759Z,83.67
2018-02-18T19:55:53.064Z,83.40
2018-02-18T19:58:58.348Z,83.53
2018-02-18T20:02:01.641Z,83.64
2018-02-18T20:05:05.169Z,83.34
2018-02-18T20:08:08.461Z,83.57
2018-02-18T20:11:11.754Z,83.53
2018-02-18T20:14:15.021Z,83.70
2018-02-18T20:17:18.342Z,83.71
2018-02-18T20:20:21.614Z,83.87
2018-02-18T20:23:24.953Z,83.83
2018-02-18T20:26:29.537Z,83.73
2018-02-18T20:29:32.854Z,83.73
2018-02-18T20:32:36.176Z,83.65
2018-02-18T20:35:39.516Z,83.47
2018-02-18T20:38:43.579Z,83.35
2018-02-18T20:41:46.863Z,83.61
2018-02-18T20:44:50.148Z,83.50
2018-02-18T20:47:53.448Z,83.40
2018-02-18T20:50:56.708Z,83.43
2018-02-18T20:54:00.809Z,83.46
2018-02-18T20:57:04.114Z,83.44
2018-02-18T21:00:07.384Z,83.34
2018-02-18T21:03:10.670Z,83.16
2018-02-18T21:06:13.952Z,83.08
2018-02-18T21:09:17.788Z,83.53
2018-02-18T21:12:21.065Z,83.67
2018-02-18T21:15:24.337Z,83.58
2018-02-18T21:18:27.767Z,83.18
2018-02-18T21:21:31.053Z,82.78
2018-02-18T21:24:34.538Z,83.25
2018-02-18T21:27:37.828Z,83.50
2018-02-18T21:30:41.859Z,83.44
2018-02-18T21:33:45.143Z,83.43
2018-02-18T21:36:48.541Z,83.52
2018-02-18T21:39:52.577Z,83.20
2018-02-18T21:42:55.874Z,83.23
2018-02-18T21:45:59.162Z,83.03
2018-02-18T21:49:03.209Z,83.42
2018-02-18T21:52:06.501Z,83.22
2018-02-18T21:55:09.775Z,83.20
2018-02-18T21:58:13.073Z,83.04
2018-02-18T22:01:16.354Z,82.97
2018-02-18T22:04:20.394Z,82.94
2018-02-18T22:07:23.717Z,83.09
2018-02-18T22:10:26.973Z,82.96
2018-02-18T22:13:32.338Z,83.11
2018-02-18T22:16:35.608Z,83.34
2018-02-18T22:19:39.699Z,83.35
2018-02-18T22:22:43.785Z,82.91
2018-02-18T22:25:47.051Z,83.02
2018-02-18T22:28:50.321Z,83.24
2018-02-18T22:31:54.356Z,83.15
2018-02-18T22:34:57.676Z,82.80
2018-02-18T22:38:02.200Z,83.18
2018-02-18T22:41:05.470Z,82.80
2018-02-18T22:44:10.239Z,82.57
2018-02-18T22:47:13.591Z,82.09
2018-02-18T22:50:18.215Z,82.03
2018-02-18T22:53:22.266Z,81.79
2018-02-18T22:56:25.564Z,81.99
2018-02-18T22:59:29.785Z,81.75
2018-02-18T23:02:33.078Z,82.14
2018-02-18T23:05:41.920Z,82.20
2018-02-18T23:08:45.189Z,82.21
2018-02-18T23:11:48.464Z,82.15
2018-02-18T23:14:51.748Z,81.94
2018-02-18T23:17:55.030Z,81.98
2018-02-18T23:21:09.174Z,82.11
2018-02-18T23:24:12.441Z,82.15
2018-02-18T23:27:15.800Z,82.13
2018-02-18T23:30:19.130Z,82.43
2018-02-18T23:33:23.152Z,82.17
2018-02-18T23:36:26.437Z,81.83
2018-02-18T23:39:30.464Z,81.60
2018-02-18T23:42:34.147Z,81.74
2018-02-18T23:45:37.456Z,81.64
2018-02-18T23:48:41.501Z,81.31
2018-02-18T23:51:44.778Z,81.38
2018-02-18T23:54:48.046Z,81.21
2018-02-18T23:57:51.329Z,81.36
